Woodbranch, Texas
Current Conditions -  °F | °C
As of 9:53 AM on Thursday 30 Oct 2014 (Local Time) from KIAH Reporting Station
Few Clouds Few Clouds  
Wind Chill: 66°   Ceiling: Unl
Heat Index: 66°   Visibility: 10mi
Dew Point: 49°   Wind: 10mph
Humidity: 54%   Direction: 90°E
Pressure: 30.15"   Gusts: NA
Location:  30.1594°N, 95.1973°W
Report Text: KIAH 301453Z 09009KT 10SM FEW070 19/09 A3015 RMK AO2 SLP208 T01890094 51012
Loading
Personal Weather Stations






























Interactive Weather Map
Tropical Storm Tracking
New forecast layout! Learn more

10-Day Weather Forecast

Advertisements
Track Severe Weather on mobile